createdAt,value
2019-02-23T00:00:05.371Z,23.65
2019-02-23T00:04:09.866Z,23.00
2019-02-23T00:08:14.431Z,22.48
2019-02-23T00:12:18.998Z,21.65
2019-02-23T00:16:23.545Z,21.75
2019-02-23T00:20:28.162Z,22.32
2019-02-23T00:24:32.667Z,20.70
2019-02-23T00:28:37.229Z,19.83
2019-02-23T00:32:41.796Z,19.75
2019-02-23T00:36:46.340Z,18.95
2019-02-23T00:40:50.855Z,19.17
2019-02-23T00:44:55.435Z,18.52
2019-02-23T00:48:59.990Z,18.80
2019-02-23T00:53:05.504Z,18.95
2019-02-23T00:57:10.059Z,18.62
2019-02-23T01:01:14.582Z,20.55
2019-02-23T01:05:19.135Z,19.00
2019-02-23T01:09:23.728Z,19.70
2019-02-23T01:13:28.324Z,20.27
2019-02-23T01:17:32.855Z,19.73
2019-02-23T01:21:37.469Z,19.45
2019-02-23T01:25:42.031Z,19.77
2019-02-23T01:29:46.595Z,18.73
2019-02-23T01:33:51.139Z,18.67
2019-02-23T01:37:55.715Z,14.73
2019-02-23T01:42:00.247Z,15.57
2019-02-23T01:46:04.803Z,14.23
2019-02-23T01:50:09.733Z,15.07
2019-02-23T01:54:14.283Z,16.13
2019-02-23T01:58:18.798Z,15.78
2019-02-23T02:02:23.381Z,15.08
2019-02-23T02:06:28.023Z,13.78
2019-02-23T02:10:32.715Z,12.70
2019-02-23T02:18:04.177Z,10.83
2019-02-23T02:23:37.748Z,12.87
2019-02-23T02:33:23.166Z,12.17
2019-02-23T02:40:53.479Z,11.27
2019-02-23T02:46:30.199Z,11.57
2019-02-23T02:50:34.740Z,12.67
2019-02-23T02:54:39.264Z,11.17
2019-02-23T02:58:43.814Z,10.27
2019-02-23T03:02:48.379Z,10.47
2019-02-23T03:09:00.836Z,11.13
2019-02-23T03:18:41.943Z,10.27
2019-02-23T03:24:43.155Z,14.80
2019-02-23T03:34:17.737Z,12.80
2019-02-23T03:41:29.212Z,11.87
2019-02-23T03:45:33.716Z,10.90
2019-02-23T03:51:32.316Z,8.73
2019-02-23T03:55:37.659Z,11.43
2019-02-23T04:00:04.231Z,9.17
2019-02-23T04:05:05.233Z,10.17
2019-02-23T04:09:09.827Z,11.10
2019-02-23T04:13:14.375Z,11.57
2019-02-23T04:19:07.267Z,9.90
2019-02-23T04:24:57.235Z,10.40
2019-02-23T04:29:01.876Z,13.17
2019-02-23T04:33:06.416Z,13.33
2019-02-23T04:41:35.631Z,13.93
2019-02-23T04:45:40.175Z,14.30
2019-02-23T04:49:52.760Z,15.63
2019-02-23T04:53:57.312Z,15.93
2019-02-23T04:58:01.835Z,14.63
2019-02-23T05:04:26.209Z,12.90
2019-02-23T05:08:30.843Z,17.57
2019-02-23T05:12:35.357Z,15.33
2019-02-23T05:17:55.730Z,16.73
2019-02-23T05:22:00.277Z,16.87
2019-02-23T05:27:45.326Z,19.17
2019-02-23T05:38:29.910Z,19.63
2019-02-23T05:46:26.297Z,21.20
2019-02-23T05:50:30.833Z,22.53
2019-02-23T05:54:35.384Z,23.30
2019-02-23T05:58:39.912Z,21.30
2019-02-23T06:02:45.286Z,23.30
2019-02-23T06:09:36.410Z,21.13
2019-02-23T06:16:41.015Z,23.33
2019-02-23T06:20:45.576Z,21.50
2019-02-23T06:24:50.147Z,20.77
2019-02-23T06:28:54.653Z,21.37
2019-02-23T06:38:27.709Z,23.23
2019-02-23T06:44:32.559Z,21.10
2019-02-23T06:54:47.761Z,20.60
2019-02-23T06:58:52.307Z,22.50
2019-02-23T07:07:01.057Z,22.43
2019-02-23T07:17:33.776Z,21.30
2019-02-23T07:23:09.761Z,21.10
2019-02-23T07:27:14.305Z,23.30
2019-02-23T07:33:12.951Z,23.67
2019-02-23T07:46:31.449Z,24.10
2019-02-23T07:52:41.031Z,22.83
2019-02-23T07:56:45.607Z,22.87
2019-02-23T08:02:26.122Z,22.27
2019-02-23T08:09:16.845Z,25.77
2019-02-23T08:18:05.505Z,24.30
2019-02-23T08:22:10.023Z,20.90
2019-02-23T08:29:26.120Z,25.23
2019-02-23T08:33:30.810Z,23.23
2019-02-23T08:37:35.387Z,24.93
2019-02-23T08:41:39.904Z,23.17
2019-02-23T08:48:27.029Z,21.47
2019-02-23T08:52:31.544Z,20.23
2019-02-23T09:02:27.050Z,22.47
2019-02-23T09:06:31.932Z,21.27
2019-02-23T09:16:27.002Z,21.50
2019-02-23T09:22:21.311Z,22.53
2019-02-23T09:26:25.853Z,23.73
2019-02-23T09:30:41.419Z,23.03
2019-02-23T09:34:46.000Z,23.67
2019-02-23T09:42:07.470Z,25.47
2019-02-23T09:46:09.342Z,23.60
2019-02-23T09:51:18.550Z,23.97
2019-02-23T09:55:23.103Z,21.70
2019-02-23T09:59:27.665Z,22.20
2019-02-23T10:03:32.184Z,25.23
2019-02-23T10:07:36.784Z,26.13
2019-02-23T10:11:41.336Z,23.23
2019-02-23T10:17:46.038Z,20.10
2019-02-23T10:21:50.584Z,21.73
2019-02-23T10:25:55.128Z,20.87
2019-02-23T10:29:59.687Z,24.87
2019-02-23T10:34:04.215Z,23.73
2019-02-23T10:38:08.787Z,22.33
2019-02-23T10:42:13.354Z,22.67
2019-02-23T10:46:17.904Z,19.23
2019-02-23T10:50:22.463Z,21.27
2019-02-23T10:54:27.032Z,24.97
2019-02-23T10:58:31.558Z,22.53
2019-02-23T11:02:36.117Z,22.73
2019-02-23T11:06:40.716Z,22.37
2019-02-23T11:10:45.317Z,17.10
2019-02-23T11:14:49.839Z,22.23
2019-02-23T11:18:54.370Z,22.60
2019-02-23T11:22:58.941Z,23.93
2019-02-23T11:27:03.507Z,20.57
2019-02-23T11:31:08.083Z,18.73
2019-02-23T11:35:12.824Z,20.73
2019-02-23T11:39:17.373Z,18.07
2019-02-23T11:43:21.949Z,17.73
2019-02-23T11:47:26.507Z,20.77
2019-02-23T11:51:31.063Z,20.33
2019-02-23T11:55:35.636Z,19.85
2019-02-23T11:59:40.160Z,19.77
2019-02-23T12:03:44.860Z,19.47
2019-02-23T12:07:49.480Z,19.48
2019-02-23T12:11:54.073Z,17.92
2019-02-23T12:15:58.716Z,16.90
2019-02-23T12:20:03.284Z,17.70
2019-02-23T12:24:07.843Z,16.17
2019-02-23T12:28:12.413Z,15.70
2019-02-23T12:32:17.000Z,15.28
2019-02-23T12:36:21.821Z,14.78
2019-02-23T12:40:26.351Z,14.05
2019-02-23T12:44:30.905Z,19.98
2019-02-23T12:48:35.480Z,20.43
2019-02-23T12:52:40.064Z,20.57
2019-02-23T12:56:44.632Z,20.37
2019-02-23T13:00:49.147Z,22.00
2019-02-23T13:04:53.807Z,21.60
2019-02-23T13:09:15.911Z,20.05
2019-02-23T13:14:04.652Z,20.08
2019-02-23T13:19:02.334Z,18.60
2019-02-23T13:23:37.243Z,16.80
2019-02-23T13:28:15.971Z,16.82
2019-02-23T13:33:09.401Z,16.55
2019-02-23T13:37:57.284Z,15.75
2019-02-23T13:42:12.684Z,16.30
2019-02-23T13:47:01.055Z,15.98
2019-02-23T13:51:53.762Z,15.25
2019-02-23T13:56:42.575Z,15.43
2019-02-23T14:01:46.471Z,17.27
2019-02-23T14:06:44.177Z,19.77
2019-02-23T14:12:32.729Z,19.23
2019-02-23T14:17:06.156Z,20.40
2019-02-23T14:21:47.581Z,18.25
2019-02-23T14:26:43.889Z,20.43
2019-02-23T14:31:20.289Z,15.30
2019-02-23T14:36:02.976Z,15.90
2019-02-23T14:40:57.617Z,15.23
2019-02-23T14:45:32.256Z,15.50
2019-02-23T14:50:05.353Z,14.53
2019-02-23T14:54:19.181Z,15.87
2019-02-23T14:58:59.644Z,13.53
2019-02-23T15:03:44.342Z,13.57
2019-02-23T15:08:12.455Z,16.53
2019-02-23T15:13:07.446Z,13.20
2019-02-23T15:17:48.753Z,14.83
2019-02-23T15:22:26.612Z,13.37
2019-02-23T15:27:21.132Z,16.00
2019-02-23T15:32:06.620Z,12.70
2019-02-23T15:37:06.991Z,11.60
2019-02-23T15:41:51.338Z,12.47
2019-02-23T15:46:43.035Z,14.50
2019-02-23T15:50:47.543Z,12.63
2019-02-23T15:54:52.119Z,11.83
2019-02-23T15:58:56.694Z,11.83
2019-02-23T16:03:01.346Z,13.58
2019-02-23T16:07:05.904Z,10.30
2019-02-23T16:11:10.579Z,10.75
2019-02-23T16:15:15.091Z,9.80
2019-02-23T16:19:19.639Z,9.05
2019-02-23T16:23:35.007Z,9.35
2019-02-23T16:27:30.521Z,8.95
2019-02-23T16:31:35.082Z,9.00
2019-02-23T16:35:40.771Z,9.28
2019-02-23T16:39:45.362Z,11.00
2019-02-23T16:43:49.934Z,9.77
2019-02-23T16:47:54.557Z,9.00
2019-02-23T16:51:59.107Z,10.10
2019-02-23T16:56:03.619Z,9.60
2019-02-23T17:00:08.613Z,10.63
2019-02-23T17:04:13.159Z,11.53
2019-02-23T17:08:17.772Z,11.83
2019-02-23T17:12:22.295Z,12.68
2019-02-23T17:16:26.831Z,11.30
2019-02-23T18:25:27.015Z,14.90
2019-02-23T18:29:31.559Z,16.63
2019-02-23T18:33:36.504Z,16.53
2019-02-23T18:37:41.009Z,15.87
2019-02-23T18:41:45.564Z,15.33
2019-02-23T18:45:50.113Z,16.90
2019-02-23T18:49:54.679Z,18.63
2019-02-23T18:53:59.231Z,15.67
2019-02-23T18:58:03.778Z,13.43
2019-02-23T19:02:08.307Z,15.20
2019-02-23T19:06:12.853Z,14.50
2019-02-23T19:10:17.448Z,18.33
2019-02-23T19:14:21.996Z,16.70
2019-02-23T19:18:26.570Z,16.80
2019-02-23T19:22:31.084Z,17.77
2019-02-23T19:26:38.275Z,17.37
2019-02-23T19:30:41.867Z,15.67
2019-02-23T19:34:46.429Z,14.83
2019-02-23T19:38:50.971Z,15.33
2019-02-23T19:42:57.101Z,14.73
2019-02-23T19:47:06.843Z,15.00
2019-02-23T19:51:11.514Z,16.45
2019-02-23T19:55:16.936Z,15.75
2019-02-23T19:59:21.499Z,14.20
2019-02-23T20:03:26.018Z,15.67
2019-02-23T20:07:30.638Z,16.83
2019-02-23T20:11:35.220Z,14.80
2019-02-23T20:15:39.768Z,17.57
2019-02-23T20:19:44.343Z,14.67
2019-02-23T20:27:32.539Z,19.03
2019-02-23T20:31:37.083Z,15.07
2019-02-23T20:35:51.223Z,14.17
2019-02-23T20:39:55.720Z,14.40
2019-02-23T20:44:00.251Z,15.27
2019-02-23T20:48:04.786Z,13.70
2019-02-23T20:52:09.340Z,17.47
2019-02-23T20:57:51.082Z,16.10
2019-02-23T21:01:55.625Z,14.20
2019-02-23T21:06:00.207Z,15.80
2019-02-23T21:10:05.223Z,13.67
2019-02-23T21:14:09.767Z,17.67
2019-02-23T21:18:14.374Z,15.47
2019-02-23T21:22:19.426Z,17.63
2019-02-23T21:29:46.435Z,16.03
2019-02-23T21:33:51.015Z,15.97
2019-02-23T21:37:55.584Z,17.87
2019-02-23T21:42:00.142Z,17.10
2019-02-23T21:46:04.714Z,18.77
2019-02-23T21:50:09.369Z,16.40
2019-02-23T21:54:13.908Z,16.30
2019-02-23T21:58:18.451Z,17.07
2019-02-23T22:08:11.438Z,18.43
2019-02-23T22:19:09.533Z,20.10
2019-02-23T22:23:14.087Z,17.50
2019-02-23T22:27:18.583Z,17.73
2019-02-23T22:31:23.137Z,16.00
2019-02-23T22:35:27.673Z,22.83
2019-02-23T22:39:32.223Z,19.83
2019-02-23T22:45:45.240Z,16.97
2019-02-23T22:49:49.792Z,20.47
2019-02-23T22:53:54.355Z,19.03
2019-02-23T22:57:58.887Z,18.57
2019-02-23T23:02:20.988Z,14.10
2019-02-23T23:07:07.023Z,16.83
2019-02-23T23:11:22.458Z,16.53
2019-02-23T23:15:26.996Z,17.67
2019-02-23T23:19:44.935Z,19.17
2019-02-23T23:23:49.448Z,18.10
2019-02-23T23:34:18.399Z,21.57
2019-02-23T23:43:57.537Z,22.50
2019-02-23T23:48:02.076Z,19.90
2019-02-23T23:55:23.775Z,22.57
